Time;durP1;ratioP1;P1;durP2;ratioP2;P2;SDS_P1;SDS_P2;PMS_P1;PMS_P2;Temp;Humidity;BMP_temperature;BMP_pressure;BME280_temperature;BME280_humidity;BME280_pressure;Samples;Min_cycle;Max_cycle;Signal;HPM_P1;HPM_P2
2022/08/12 06:02:25;;;;;;;;;12.75;11.25;;;;;22.95;39.15;101370.16;2366963;28;66626;-78
2022/08/12 06:03:35;;;;;;;;;11.50;11.50;;;;;22.98;39.57;101371.75;2374175;28;45553;-79
2022/08/12 06:04:45;;;;;;;;;12.75;11.50;;;;;23.03;38.58;101375.81;2383713;28;45456;-79
2022/08/12 06:05:57;;;;;;;;;13.00;13.00;;;;;23.07;38.23;101368.38;2383172;28;46311;-79
2022/08/12 06:07:10;;;;;;;;;13.75;13.75;;;;;23.09;38.10;101369.09;2384745;28;44839;-79
2022/08/12 06:08:22;;;;;;;;;12.75;12.00;;;;;23.15;37.22;101371.31;2393215;28;45537;-79
2022/08/12 06:09:32;;;;;;;;;10.00;9.75;;;;;23.16;37.41;101367.66;2394315;28;45164;-79
2022/08/12 06:10:44;;;;;;;;;15.50;13.25;;;;;23.21;37.91;101361.94;2376132;28;48475;-79
2022/08/12 06:11:57;;;;;;;;;13.50;13.50;;;;;23.25;38.05;101363.41;2377948;28;45275;-79
2022/08/12 06:13:08;;;;;;;;;11.25;11.25;;;;;23.29;37.65;101361.34;2384806;28;45591;-78
2022/08/12 06:14:18;;;;;;;;;14.75;11.75;;;;;23.35;37.90;101371.59;2375096;28;45143;-79
2022/08/12 06:15:30;;;;;;;;;10.50;10.50;;;;;23.37;38.84;101366.09;2374730;28;47179;-79
2022/08/12 06:16:42;;;;;;;;;14.25;13.00;;;;;23.41;38.24;101364.88;2373351;28;44699;-83
2022/08/12 06:17:53;;;;;;;;;14.25;13.25;;;;;23.46;38.71;101367.19;2381224;28;46097;-81
2022/08/12 06:19:03;;;;;;;;;11.75;11.00;;;;;23.50;38.38;101368.72;2375503;28;45425;-79
2022/08/12 06:20:15;;;;;;;;;13.00;12.75;;;;;23.52;37.52;101372.13;2377481;28;45463;-79
2022/08/12 06:21:25;;;;;;;;;11.50;11.25;;;;;23.55;37.49;101363.84;2384987;28;45171;-79
2022/08/12 06:22:36;;;;;;;;;12.75;12.75;;;;;23.57;37.08;101364.56;2387733;28;46273;-79
2022/08/12 06:23:46;;;;;;;;;9.25;9.25;;;;;23.60;36.83;101360.78;2374735;28;45355;-79
2022/08/12 06:24:59;;;;;;;;;11.75;11.50;;;;;23.64;37.49;101364.06;2377484;28;45502;-79
2022/08/12 06:26:11;;;;;;;;;13.25;12.25;;;;;23.68;36.82;101369.06;2388550;28;45223;-79
2022/08/12 06:27:22;;;;;;;;;12.25;12.25;;;;;23.70;36.64;101369.84;2383877;28;46169;-79
2022/08/12 06:28:32;;;;;;;;;13.75;11.75;;;;;23.73;36.69;101376.75;2387028;28;45281;-79
2022/08/12 06:29:43;;;;;;;;;11.75;11.00;;;;;23.76;37.50;101373.84;2393803;28;45380;-78
2022/08/12 06:30:54;;;;;;;;;14.75;11.75;;;;;23.78;37.90;101374.56;2386493;28;45290;-79
2022/08/12 06:32:05;;;;;;;;;17.00;14.00;;;;;23.82;36.78;101376.03;2384415;28;45552;-79
2022/08/12 06:33:19;;;;;;;;;13.25;11.00;;;;;23.85;37.16;101379.44;2383601;28;45389;-79
2022/08/12 06:34:33;;;;;;;;;12.25;10.50;;;;;23.89;38.29;101378.22;2377739;28;47347;-79
2022/08/12 06:35:44;;;;;;;;;12.75;12.75;;;;;23.90;36.81;101374.56;2383858;28;45476;-79
2022/08/12 06:36:54;;;;;;;;;12.25;11.00;;;;;23.90;36.63;101371.88;2383837;28;46494;-79
2022/08/12 06:38:14;;;;;;;;;12.00;12.00;;;;;23.93;36.52;101375.16;2376972;28;44675;-79
2022/08/12 06:39:25;;;;;;;;;14.00;13.00;;;;;23.95;36.72;101375.06;2385985;28;46340;-79
2022/08/12 06:43:33;;;;;;;;;13.25;12.75;;;;;24.03;36.02;101377.97;2375586;28;45393;-79
2022/08/12 06:44:43;;;;;;;;;10.75;10.75;;;;;24.08;36.10;101390.16;2382109;28;45298;-79
2022/08/12 06:45:56;;;;;;;;;12.75;12.75;;;;;24.08;36.44;101382.94;2384615;28;45264;-79
2022/08/12 06:47:07;;;;;;;;;15.25;15.25;;;;;24.10;36.31;101381.00;2384303;28;45478;-79
2022/08/12 06:48:17;;;;;;;;;13.25;11.50;;;;;24.14;37.15;101379.78;2384655;28;45439;-79
2022/08/12 06:49:34;;;;;;;;;12.25;12.25;;;;;24.18;36.86;101377.69;2384588;28;46481;-79
2022/08/12 06:50:45;;;;;;;;;11.75;10.75;;;;;24.20;37.27;101375.72;2374501;28;45362;-79
2022/08/12 06:51:55;;;;;;;;;11.25;11.25;;;;;24.23;36.53;101380.00;2367900;28;46972;-79
2022/08/12 06:53:08;;;;;;;;;12.50;11.00;;;;;24.27;36.38;101382.34;2374685;28;45399;-79
2022/08/12 06:54:18;;;;;;;;;13.25;13.00;;;;;24.28;35.81;101377.81;2382649;28;45540;-79
2022/08/12 06:55:29;;;;;;;;;13.25;11.00;;;;;24.30;35.82;101381.22;2384625;28;44624;-79
2022/08/12 06:56:39;;;;;;;;;13.00;11.50;;;;;24.35;36.01;101386.22;2384135;28;45984;-79
2022/08/12 06:58:00;;;;;;;;;12.25;12.25;;;;;24.36;35.88;101380.75;2389212;28;45272;-79
2022/08/12 06:59:13;;;;;;;;;14.50;12.00;;;;;24.39;35.89;101385.00;2376068;28;47076;-79
2022/08/12 07:00:26;;;;;;;;;11.75;11.75;;;;;24.41;34.72;101385.72;2386595;28;45255;-79
2022/08/12 07:01:37;;;;;;;;;13.50;12.25;;;;;24.43;35.35;101385.59;2386234;28;45389;-79
2022/08/12 07:02:48;;;;;;;;;12.00;11.25;;;;;24.45;35.46;101370.19;2374902;28;45414;-79
2022/08/12 07:03:58;;;;;;;;;12.25;11.25;;;;;24.47;35.03;101376.31;2377378;28;45484;-79
2022/08/12 07:05:08;;;;;;;;;12.00;11.25;;;;;24.51;35.47;101380.44;2384645;28;45164;-79
2022/08/12 07:06:19;;;;;;;;;12.50;10.50;;;;;24.53;35.18;101378.47;2383813;28;46975;-79
2022/08/12 07:07:29;;;;;;;;;10.75;9.25;;;;;24.56;35.67;101378.25;2382661;28;45183;-79
2022/08/12 07:08:41;;;;;;;;;10.00;8.75;;;;;24.60;35.51;101378.81;2382804;28;45361;-79
2022/08/12 07:09:51;;;;;;;;;11.00;11.00;;;;;24.63;35.34;101375.88;2381576;28;44715;-79
2022/08/12 07:11:04;;;;;;;;;13.25;12.25;;;;;24.67;35.11;101380.00;2372473;28;47366;-78
2022/08/12 07:12:18;;;;;;;;;10.50;9.75;;;;;24.69;35.02;101378.03;2380345;28;44695;-78
2022/08/12 07:13:41;;;;;;;;;12.75;11.75;;;;;24.70;35.03;101379.75;2384974;28;45453;-77
2022/08/12 07:14:52;;;;;;;;;12.75;11.25;;;;;24.75;35.54;101375.81;2394022;28;44656;-78
2022/08/12 07:16:05;;;;;;;;;11.75;10.50;;;;;24.78;35.07;101372.88;2383433;28;47275;-78
2022/08/12 07:17:16;;;;;;;;;12.25;12.25;;;;;24.81;35.05;101378.00;2377565;28;45263;-78
2022/08/12 07:18:30;;;;;;;;;14.00;13.00;;;;;24.84;35.33;101372.38;2377540;28;47054;-81
2022/08/12 07:19:42;;;;;;;;;13.25;12.00;;;;;24.89;34.70;101382.75;2368464;28;45291;-80
2022/08/12 07:20:52;;;;;;;;;15.00;11.75;;;;;24.90;34.64;101379.91;2387532;28;45629;-79
2022/08/12 07:22:05;;;;;;;;;12.00;12.00;;;;;24.92;34.84;101372.56;2393807;28;45217;-79
2022/08/12 07:23:16;;;;;;;;;12.25;10.50;;;;;24.95;34.18;101372.31;2393716;28;46099;-79
2022/08/12 07:24:27;;;;;;;;;13.25;12.00;;;;;24.98;34.45;101367.66;2393793;28;45367;-79
2022/08/12 07:25:38;;;;;;;;;9.00;8.00;;;;;25.03;34.81;101377.06;2393498;28;46192;-78
2022/08/12 07:26:48;;;;;;;;;12.50;11.75;;;;;25.05;34.59;101371.56;2383707;28;45369;-79
2022/08/12 07:28:02;;;;;;;;;9.50;9.50;;;;;25.07;34.56;101374.97;2377993;28;45436;-79
2022/08/12 07:29:13;;;;;;;;;11.75;10.75;;;;;25.10;34.19;101372.03;2383576;28;45211;-79
2022/08/12 07:30:24;;;;;;;;;10.50;10.25;;;;;25.14;34.76;101372.59;2384017;28;46581;-80
2022/08/12 07:31:38;;;;;;;;;12.25;10.25;;;;;25.19;34.31;101377.59;2373913;28;45260;-79
2022/08/12 07:32:50;;;;;;;;;11.25;11.25;;;;;25.20;35.29;101373.91;2374598;28;46471;-80
2022/08/12 07:34:00;;;;;;;;;12.00;12.00;;;;;25.23;34.49;101373.66;2383846;28;45294;-79
2022/08/12 07:35:11;;;;;;;;;11.75;11.75;;;;;25.23;34.40;101366.44;2384204;28;46592;-79
2022/08/12 07:36:21;;;;;;;;;12.75;11.75;;;;;25.24;34.56;101376.19;2384440;28;44642;-79
2022/08/12 07:37:32;;;;;;;;;11.25;11.00;;;;;25.23;33.94;101369.13;2384339;28;45552;-79
2022/08/12 07:38:47;;;;;;;;;12.00;11.00;;;;;25.26;34.03;101374.22;2383608;28;45239;-79
2022/08/12 07:39:57;;;;;;;;;11.00;10.75;;;;;25.28;34.46;101374.09;2381048;28;45326;-79
2022/08/12 07:41:21;;;;;;;;;9.50;8.00;;;;;25.33;33.86;101371.88;2387327;28;45235;-79
2022/08/12 07:42:32;;;;;;;;;14.00;12.75;;;;;25.34;34.44;101365.50;2380417;28;46172;-79
2022/08/12 07:43:52;;;;;;;;;11.50;11.50;;;;;25.36;34.33;101366.22;2386488;28;45292;-79
2022/08/12 07:45:06;;;;;;;;;12.75;12.75;;;;;25.42;34.48;101372.03;2383391;28;46212;-79
2022/08/12 07:46:25;;;;;;;;;12.75;12.75;;;;;25.45;34.05;101369.94;2377166;28;45275;-79
2022/08/12 07:47:36;;;;;;;;;10.25;10.25;;;;;25.46;33.48;101370.81;2382573;28;46281;-79
2022/08/12 07:48:53;;;;;;;;;15.50;14.00;;;;;25.51;33.89;101365.84;2376997;28;45405;-79
2022/08/12 07:50:07;;;;;;;;;11.75;11.75;;;;;25.53;34.29;101361.22;2386929;28;46282;-79
2022/08/12 07:51:20;;;;;;;;;11.25;10.75;;;;;25.56;33.89;101358.22;2383674;28;45287;-79
2022/08/12 07:52:31;;;;;;;;;13.75;13.75;;;;;25.58;34.00;101360.81;2382411;28;46636;-79
2022/08/12 07:53:41;;;;;;;;;14.25;13.00;;;;;25.60;33.97;101358.81;2367294;28;45537;-79
2022/08/12 07:54:51;;;;;;;;;11.25;11.25;;;;;25.63;33.61;101361.25;2386105;28;45227;-79
2022/08/12 07:56:04;;;;;;;;;12.75;12.25;;;;;25.65;33.89;101364.66;2383422;28;46924;-79
2022/08/12 07:57:14;;;;;;;;;13.00;11.25;;;;;25.69;34.00;101365.22;2369012;28;48447;-79
2022/08/12 07:58:25;;;;;;;;;15.00;11.25;;;;;25.71;33.41;101355.16;2365114;29;44711;-79
2022/08/12 07:59:35;;;;;;;;;16.00;12.50;;;;;25.74;33.70;101357.63;2385409;28;45957;-78
2022/08/12 08:00:48;;;;;;;;;12.00;11.00;;;;;25.77;34.09;101351.97;2383424;28;45484;-79
2022/08/12 08:02:00;;;;;;;;;13.25;11.75;;;;;25.80;34.22;101353.53;2382082;28;45219;-79
2022/08/12 08:03:12;;;;;;;;;11.50;10.25;;;;;25.82;33.95;101362.34;2374071;28;45247;-79
2022/08/12 08:05:52;;;;;;;;;12.25;11.25;;;;;25.91;33.92;101361.50;2381682;28;45816;-79
2022/08/12 08:07:02;;;;;;;;;11.50;10.50;;;;;25.91;33.28;101360.66;2371593;28;47101;-79
2022/08/12 08:08:15;;;;;;;;;11.50;11.50;;;;;25.94;33.41;101365.75;2375122;28;45485;-79
2022/08/12 08:09:26;;;;;;;;;10.75;10.75;;;;;25.97;33.79;101370.88;2380643;28;45346;-79
2022/08/12 08:10:36;;;;;;;;;14.50;11.00;;;;;26.00;33.56;101359.81;2373507;28;44787;-80
2022/08/12 08:13:17;;;;;;;;;12.75;12.00;;;;;26.05;33.11;101360.25;2375487;28;44644;-79
2022/08/12 08:14:28;;;;;;;;;11.25;11.25;;;;;26.09;33.42;101365.38;2374147;28;47497;-79
2022/08/12 08:15:39;;;;;;;;;9.25;7.75;;;;;26.11;33.12;101360.69;2383571;28;44722;-80
2022/08/12 08:16:50;;;;;;;;;11.25;9.75;;;;;26.12;33.31;101357.03;2383278;28;46438;-80
2022/08/12 08:18:03;;;;;;;;;12.50;12.50;;;;;26.14;33.31;101355.91;2389527;28;44736;-79
2022/08/12 08:19:22;;;;;;;;;12.25;12.25;;;;;26.20;33.12;101367.09;2389122;28;46630;-80
2022/08/12 08:20:36;;;;;;;;;12.25;11.25;;;;;26.21;33.15;101355.31;2370670;28;45469;-80
2022/08/12 08:21:47;;;;;;;;;12.00;12.00;;;;;26.23;33.01;101359.59;2377456;28;45459;-80
2022/08/12 08:22:59;;;;;;;;;12.50;11.50;;;;;26.27;33.43;101365.56;2384861;28;45265;-80
2022/08/12 08:24:15;;;;;;;;;12.75;11.00;;;;;26.31;33.04;101369.66;2383078;28;45552;-79
2022/08/12 08:25:37;;;;;;;;;13.25;12.25;;;;;26.33;33.10;101364.97;2382100;28;45232;-79
2022/08/12 08:26:50;;;;;;;;;10.50;9.50;;;;;26.37;32.99;101371.78;2374644;28;45390;-79
2022/08/12 08:28:03;;;;;;;;;14.50;12.00;;;;;26.40;33.15;101370.66;2383409;28;45267;-79
2022/08/12 08:29:15;;;;;;;;;12.75;12.75;;;;;26.44;32.96;101372.13;2382277;28;46931;-80
2022/08/12 08:30:27;;;;;;;;;11.50;11.00;;;;;26.46;32.62;101378.22;2383648;28;44656;-80
2022/08/12 08:31:42;;;;;;;;;13.25;13.25;;;;;26.49;33.20;101366.31;2382903;28;45978;-80
2022/08/12 08:32:52;;;;;;;;;11.25;11.25;;;;;26.55;32.85;101372.97;2382914;28;45254;-79
2022/08/12 08:34:03;;;;;;;;;14.00;11.75;;;;;26.56;33.21;101369.28;2373771;28;46120;-79
2022/08/12 08:35:14;;;;;;;;;11.75;10.25;;;;;26.61;32.84;101375.09;2377868;28;45405;-80
2022/08/12 08:36:24;;;;;;;;;12.00;10.25;;;;;26.63;32.32;101371.28;2391985;28;45417;-79
2022/08/12 08:37:35;;;;;;;;;11.00;11.00;;;;;26.67;33.39;101360.22;2381881;28;44710;-81
2022/08/12 08:38:46;;;;;;;;;10.50;10.50;;;;;26.70;33.04;101366.16;2386537;28;46613;-80
2022/08/12 08:42:35;;;;;;;;;11.25;9.50;;;;;26.74;32.98;101366.75;2384337;28;45311;-80
2022/08/12 08:42:56;;;;;;;;;12.00;12.00;;;;;26.80;32.76;101362.59;2383864;28;45392;-80
2022/08/12 12:04:16;;;;;;;;;8.75;8.00;;;;;29.46;26.80;101197.00;2605728;23;46040;-79
2022/08/12 12:05:27;;;;;;;;;9.50;9.25;;;;;29.49;28.72;101202.06;2364267;29;45488;-79
2022/08/12 12:06:37;;;;;;;;;9.25;9.00;;;;;29.54;28.38;101207.81;2364184;29;46177;-79
2022/08/12 12:07:48;;;;;;;;;8.75;7.75;;;;;29.57;28.57;101198.53;2367673;28;45504;-79
2022/08/12 12:08:58;;;;;;;;;9.00;7.50;;;;;29.61;28.43;101194.47;2368984;28;45616;-78
2022/08/12 12:10:14;;;;;;;;;7.00;7.00;;;;;29.62;28.36;101202.44;2365425;28;45344;-79
2022/08/12 12:11:24;;;;;;;;;8.50;8.00;;;;;29.64;28.99;101196.84;2365713;28;45496;-79
2022/08/12 12:12:34;;;;;;;;;8.75;7.00;;;;;29.65;29.25;101195.84;2359789;29;45409;-80
2022/08/12 12:13:45;;;;;;;;;7.50;7.50;;;;;29.65;28.19;101191.28;2358470;29;45335;-79
2022/08/12 12:14:57;;;;;;;;;9.00;9.00;;;;;29.67;28.91;101188.38;2368096;28;45597;-78
2022/08/12 12:16:09;;;;;;;;;9.75;9.00;;;;;29.64;29.20;101184.16;2374539;28;45482;-79
2022/08/12 12:17:19;;;;;;;;;9.75;8.25;;;;;29.63;29.48;101176.22;2370556;28;45493;-79
2022/08/12 12:18:31;;;;;;;;;8.00;6.75;;;;;29.60;26.58;101182.81;2368068;28;46408;-79
2022/08/12 12:19:41;;;;;;;;;7.50;7.50;;;;;29.60;29.16;101181.94;2367409;28;45293;-79
2022/08/12 12:20:55;;;;;;;;;9.50;7.75;;;;;29.59;28.75;101183.81;2374387;28;45389;-79
2022/08/12 12:22:05;;;;;;;;;8.00;8.00;;;;;29.56;29.43;101181.41;2358115;29;45267;-79
2022/08/12 12:23:15;;;;;;;;;7.00;7.00;;;;;29.56;29.54;101181.41;2350651;29;48213;-79
2022/08/12 12:24:26;;;;;;;;;7.00;7.00;;;;;29.55;30.18;101182.44;2359194;28;45268;-79
2022/08/12 12:25:36;;;;;;;;;9.00;7.50;;;;;29.53;28.91;101182.59;2365475;29;46399;-79
2022/08/12 12:26:46;;;;;;;;;8.50;7.75;;;;;29.53;29.96;101181.78;2372551;28;45292;-79
2022/08/12 12:27:57;;;;;;;;;8.75;8.75;;;;;29.51;29.71;101184.63;2367055;28;46317;-79
2022/08/12 12:29:07;;;;;;;;;9.25;9.25;;;;;29.49;30.23;101170.41;2367631;28;45270;-79
2022/08/12 12:30:18;;;;;;;;;9.50;9.25;;;;;29.48;29.73;101176.00;2374602;28;45273;-79
2022/08/12 12:31:31;;;;;;;;;7.00;6.25;;;;;29.47;27.65;101182.44;2359189;29;45526;-79
2022/08/12 12:32:42;;;;;;;;;7.25;7.25;;;;;29.48;28.42;101173.31;2361006;28;46418;-78
2022/08/12 12:33:53;;;;;;;;;7.75;7.75;;;;;29.48;29.15;101170.59;2361808;29;45300;-79
2022/08/12 12:35:03;;;;;;;;;7.00;7.00;;;;;29.51;29.72;101164.84;2357114;29;45302;-78
2022/08/12 12:36:14;;;;;;;;;7.00;7.00;;;;;29.51;29.83;101172.97;2363048;28;45144;-85
2022/08/12 12:37:24;;;;;;;;;8.25;7.00;;;;;29.50;30.26;101171.28;2368444;28;45430;-79
2022/08/12 12:38:35;;;;;;;;;6.50;6.50;;;;;29.52;30.11;101171.94;2370550;28;45426;-79
2022/08/12 12:39:45;;;;;;;;;6.75;6.75;;;;;29.51;28.27;101178.41;2367656;28;45411;-79
2022/08/12 12:40:56;;;;;;;;;8.75;7.25;;;;;29.53;29.37;101179.06;2376459;28;45188;-79
2022/08/12 12:42:06;;;;;;;;;8.25;7.00;;;;;29.50;29.91;101177.53;2376076;28;45250;-79
2022/08/12 12:43:17;;;;;;;;;9.75;8.50;;;;;29.53;30.35;101174.47;2367412;28;45220;-79
2022/08/12 12:44:27;;;;;;;;;7.75;7.00;;;;;29.53;30.25;101171.78;2372730;28;46158;-79
2022/08/12 12:45:38;;;;;;;;;8.00;8.00;;;;;29.52;28.12;101170.09;2376335;28;45388;-79
2022/08/12 12:46:48;;;;;;;;;9.00;6.75;;;;;29.52;29.33;101163.81;2368399;28;45676;-79
2022/08/12 12:48:03;;;;;;;;;8.00;8.00;;;;;29.53;30.19;101160.94;2371332;28;45182;-79
2022/08/12 12:49:13;;;;;;;;;9.75;8.25;;;;;29.54;30.38;101170.78;2375916;28;45429;-79
2022/08/12 12:50:42;;;;;;;;;7.50;6.50;;;;;29.54;28.60;101172.63;2376348;28;45161;-79
2022/08/12 12:51:52;;;;;;;;;6.75;6.75;;;;;29.54;29.88;101169.91;2366321;29;47117;-79
2022/08/12 12:53:04;;;;;;;;;7.50;7.50;;;;;29.55;27.71;101168.91;2361996;29;44812;-79
2022/08/12 12:54:14;;;;;;;;;5.75;5.75;;;;;29.56;26.62;101169.78;2366446;28;46569;-79
2022/08/12 12:55:26;;;;;;;;;8.50;8.50;;;;;29.59;29.09;101162.13;2357143;29;45173;-79
2022/08/12 12:56:40;;;;;;;;;5.50;5.50;;;;;29.63;29.20;101159.97;2359677;29;46268;-79
2022/08/12 12:57:51;;;;;;;;;7.25;6.25;;;;;29.65;28.73;101168.75;2367811;28;45473;-79
2022/08/12 12:59:04;;;;;;;;;8.25;7.25;;;;;29.66;29.24;101165.03;2366754;29;45331;-79
2022/08/12 13:00:17;;;;;;;;;6.00;6.00;;;;;29.66;29.45;101160.47;2368581;28;45233;-79
2022/08/12 13:01:27;;;;;;;;;7.75;7.75;;;;;29.64;29.94;101157.06;2369992;28;46178;-79
2022/08/12 13:02:39;;;;;;;;;6.75;6.75;;;;;29.64;30.53;101162.50;2369248;28;45457;-79
2022/08/12 13:03:52;;;;;;;;;4.75;4.75;;;;;29.62;30.11;101156.41;2373313;28;46331;-79
2022/08/12 13:05:03;;;;;;;;;10.25;8.25;;;;;29.60;29.05;101154.88;2367658;28;45192;-80
2022/08/12 13:06:13;;;;;;;;;6.00;6.00;;;;;29.60;27.60;101152.16;2373865;28;45260;-79
2022/08/12 13:07:25;;;;;;;;;6.50;6.00;;;;;29.58;28.94;101155.06;2372850;28;45371;-79
2022/08/12 13:08:35;;;;;;;;;6.25;6.00;;;;;29.57;27.97;101145.22;2376177;28;46266;-79
2022/08/12 13:09:45;;;;;;;;;7.50;7.50;;;;;29.59;29.23;101148.59;2374872;28;45160;-79
2022/08/12 13:11:02;;;;;;;;;8.25;6.75;;;;;29.61;30.23;101149.28;2375099;28;45439;-79
2022/08/12 13:12:13;;;;;;;;;8.25;7.00;;;;;29.60;30.29;101150.31;2374455;28;45200;-79
2022/08/12 13:13:24;;;;;;;;;6.75;6.75;;;;;29.60;29.92;101161.13;2367008;28;45327;-79
2022/08/12 13:14:36;;;;;;;;;8.00;7.00;;;;;29.60;28.44;101152.16;2368653;28;45447;-79
2022/08/12 13:15:48;;;;;;;;;8.25;8.25;;;;;29.60;29.80;101155.72;2368438;28;45542;-79
2022/08/12 13:16:59;;;;;;;;;8.00;8.00;;;;;29.58;30.29;101146.94;2376165;28;45168;-79
2022/08/12 13:18:10;;;;;;;;;7.00;7.00;;;;;29.56;29.71;101150.81;2374859;28;46322;-79
2022/08/12 13:19:20;;;;;;;;;6.00;6.00;;;;;29.56;28.80;101151.63;2375429;28;44839;-79
2022/08/12 13:20:31;;;;;;;;;8.25;7.00;;;;;29.56;29.75;101148.09;2375959;28;45453;-79
2022/08/12 13:22:16;;;;;;;;;7.75;7.50;;;;;29.54;28.71;101146.41;2367244;28;45419;-79
2022/08/12 13:23:14;;;;;;;;;9.00;8.00;;;;;29.55;29.32;101141.84;2371718;28;45561;-79
2022/08/12 13:24:25;;;;;;;;;8.75;7.75;;;;;29.55;28.66;101136.44;2367715;28;45416;-79
2022/08/12 13:25:35;;;;;;;;;6.50;6.50;;;;;29.56;30.43;101143.50;2366714;29;46403;-79
2022/08/12 13:26:45;;;;;;;;;10.25;8.50;;;;;29.57;30.02;101134.41;2374670;28;45351;-79
2022/08/12 13:27:56;;;;;;;;;6.75;6.75;;;;;29.57;29.98;101138.94;2371064;28;47047;-79
2022/08/12 13:29:06;;;;;;;;;6.75;6.75;;;;;29.57;30.01;101134.41;2365583;29;45436;-79
2022/08/12 13:30:20;;;;;;;;;9.00;7.50;;;;;29.55;29.82;101136.44;2374804;28;46679;-79
2022/08/12 13:31:31;;;;;;;;;8.00;8.00;;;;;29.54;30.22;101137.44;2360934;29;45482;-79
2022/08/12 13:32:44;;;;;;;;;7.00;7.00;;;;;29.52;29.53;101134.91;2361425;28;46391;-79
2022/08/12 13:33:54;;;;;;;;;8.50;8.50;;;;;29.52;30.38;101134.91;2366597;28;46653;-79
2022/08/12 13:35:05;;;;;;;;;8.25;8.25;;;;;29.51;30.36;101127.78;2366650;28;46147;-79
2022/08/12 13:36:19;;;;;;;;;8.50;7.00;;;;;29.50;30.33;101128.81;2367031;28;45440;-79
2022/08/12 13:37:29;;;;;;;;;9.25;9.25;;;;;29.51;30.27;101135.06;2366710;29;46233;-79
2022/08/12 13:38:45;;;;;;;;;9.50;8.50;;;;;29.49;28.60;101132.53;2366818;28;45268;-79
2022/08/12 13:39:56;;;;;;;;;7.50;7.00;;;;;29.49;28.75;101137.06;2370952;28;45491;-80
2022/08/12 13:41:31;;;;;;;;;7.50;7.50;;;;;29.51;27.07;101129.66;2357300;29;45451;-79
2022/08/12 13:42:43;;;;;;;;;6.75;6.00;;;;;29.56;28.00;101126.44;2366454;28;45466;-80
2022/08/12 13:43:53;;;;;;;;;7.50;7.50;;;;;29.58;26.41;101103.59;2370349;28;45228;-79
2022/08/12 13:45:06;;;;;;;;;8.50;7.25;;;;;29.64;27.71;101121.88;2368984;28;45615;-79
2022/08/12 13:46:18;;;;;;;;;5.75;5.75;;;;;29.72;27.86;101131.03;2368614;28;45350;-79
2022/08/12 13:47:29;;;;;;;;;6.50;6.50;;;;;29.79;28.90;101121.22;2367747;28;46498;-80
2022/08/12 13:48:41;;;;;;;;;7.75;7.75;;;;;29.83;29.19;101121.75;2371556;28;45266;-80
2022/08/12 13:49:52;;;;;;;;;7.00;7.00;;;;;29.88;28.40;101127.47;2369860;28;46514;-79
2022/08/12 13:51:02;;;;;;;;;9.00;8.25;;;;;29.91;29.09;101115.44;2367929;28;45372;-79
2022/08/12 13:52:13;;;;;;;;;8.00;8.00;;;;;29.91;29.56;101110.88;2370609;28;46460;-80
2022/08/12 13:53:23;;;;;;;;;7.25;6.50;;;;;29.90;29.35;101111.91;2372788;28;45315;-79
2022/08/12 13:54:33;;;;;;;;;7.50;7.00;;;;;29.89;28.68;101112.91;2366191;29;45438;-79
2022/08/12 13:55:48;;;;;;;;;8.75;8.75;;;;;29.88;27.08;101109.34;2367170;28;45185;-79
2022/08/12 13:56:59;;;;;;;;;6.25;6.25;;;;;29.89;29.10;101112.91;2372260;28;46227;-79
2022/08/12 13:58:10;;;;;;;;;8.25;8.25;;;;;29.89;29.33;101099.38;2369083;28;45438;-79
2022/08/12 13:59:21;;;;;;;;;5.00;5.00;;;;;29.91;28.78;101113.59;2361860;29;47142;-79
2022/08/12 14:00:34;;;;;;;;;6.00;6.00;;;;;29.90;28.98;101111.06;2362594;28;44776;-79
2022/08/12 14:01:48;;;;;;;;;9.50;7.75;;;;;29.90;29.58;101111.06;2370914;28;45480;-79
2022/08/12 14:02:59;;;;;;;;;6.25;6.25;;;;;29.86;29.66;101114.09;2366446;28;44832;-79
2022/08/12 14:04:09;;;;;;;;;6.75;6.75;;;;;29.81;29.08;101113.75;2365207;28;46175;-79
2022/08/12 14:05:20;;;;;;;;;9.00;7.00;;;;;29.79;29.13;101118.50;2374717;28;45493;-79
2022/08/12 14:06:32;;;;;;;;;8.25;7.25;;;;;29.76;29.52;101113.44;2373439;28;45445;-79
2022/08/12 14:07:54;;;;;;;;;7.50;6.75;;;;;29.74;30.11;101118.19;2383289;28;45173;-79
2022/08/12 14:09:04;;;;;;;;;6.00;6.00;;;;;29.71;29.76;101107.66;2384737;28;45288;-79
2022/08/12 14:10:35;;;;;;;;;7.00;7.00;;;;;29.67;29.96;101115.28;2384983;28;45219;-79
2022/08/12 14:11:46;;;;;;;;;7.25;7.25;;;;;29.65;29.93;101110.03;2378943;28;46379;-79
2022/08/12 14:12:56;;;;;;;;;6.00;6.00;;;;;29.60;29.88;101106.13;2371298;28;44603;-79
2022/08/12 14:14:08;;;;;;;;;8.50;8.00;;;;;29.56;29.54;101099.38;2369558;28;45324;-79
2022/08/12 14:15:18;;;;;;;;;6.25;6.25;;;;;29.52;29.89;101106.97;2370689;28;45680;-79
2022/08/12 14:16:30;;;;;;;;;7.00;6.25;;;;;29.50;30.37;101111.72;2366154;28;46188;-79
2022/08/12 14:17:40;;;;;;;;;9.75;9.00;;;;;29.47;29.91;101114.75;2374238;28;45240;-79
2022/08/12 14:18:50;;;;;;;;;7.00;7.00;;;;;29.43;30.03;101114.25;2376776;28;45349;-79
2022/08/12 14:20:13;;;;;;;;;6.75;6.75;;;;;29.42;29.43;101120.66;2384312;28;45349;-79
2022/08/12 14:21:25;;;;;;;;;8.00;7.50;;;;;29.41;27.06;101113.56;2377492;28;45587;-79
2022/08/12 14:22:36;;;;;;;;;7.25;6.25;;;;;29.41;29.71;101108.97;2375623;28;45244;-79
2022/08/12 14:23:49;;;;;;;;;8.50;5.50;;;;;29.43;28.08;101108.84;2374669;28;46208;-79
2022/08/12 14:25:00;;;;;;;;;7.75;7.75;;;;;29.47;28.13;101106.63;2375180;28;45389;-79
2022/08/12 14:26:13;;;;;;;;;6.75;6.75;;;;;29.52;29.75;101104.25;2375123;28;45568;-79
2022/08/12 14:27:27;;;;;;;;;6.50;6.50;;;;;29.57;28.19;101101.03;2381180;28;45226;-79
2022/08/12 14:28:39;;;;;;;;;8.50;8.50;;;;;29.61;29.84;101096.97;2384781;28;45441;-79
2022/08/12 14:29:49;;;;;;;;;6.50;6.50;;;;;29.64;28.27;101105.63;2384828;28;45248;-79
2022/08/12 14:31:09;;;;;;;;;8.75;6.75;;;;;29.66;28.65;101097.31;2384608;28;46000;-79
2022/08/12 14:32:19;;;;;;;;;6.00;6.00;;;;;29.71;29.51;101094.13;2384683;28;44782;-79
2022/08/12 14:33:32;;;;;;;;;6.50;6.50;;;;;29.73;29.51;101097.53;2378518;28;46415;-79
2022/08/12 14:34:45;;;;;;;;;7.75;7.00;;;;;29.74;29.64;101089.22;2375386;28;45455;-79
2022/08/12 14:35:57;;;;;;;;;8.00;8.00;;;;;29.76;29.40;101092.63;2375597;28;45625;-79
2022/08/12 14:37:07;;;;;;;;;8.50;8.00;;;;;29.76;28.90;101083.63;2375473;28;45470;-79
2022/08/12 14:38:21;;;;;;;;;10.00;9.00;;;;;29.79;29.28;101094.13;2375337;28;46568;-79
2022/08/12 14:39:31;;;;;;;;;7.25;7.25;;;;;29.79;28.38;101088.72;2375586;28;44705;-79
2022/08/12 14:40:43;;;;;;;;;8.25;6.50;;;;;29.79;27.99;101094.13;2375516;28;45546;-79
2022/08/12 14:41:53;;;;;;;;;8.00;8.00;;;;;29.84;27.24;101091.75;2374246;28;45233;-79
2022/08/12 14:43:03;;;;;;;;;8.00;8.00;;;;;29.87;28.73;101091.44;2375312;28;45438;-79
2022/08/12 14:44:14;;;;;;;;;7.50;7.50;;;;;29.89;27.92;101088.53;2375118;28;45465;-80
2022/08/12 14:45:25;;;;;;;;;8.00;7.50;;;;;29.91;28.81;101086.50;2375361;28;45384;-80
2022/08/12 14:46:36;;;;;;;;;7.00;6.00;;;;;29.94;29.54;101083.47;2375539;28;45297;-79
2022/08/12 14:47:52;;;;;;;;;7.25;7.25;;;;;29.96;28.65;101084.13;2375342;28;46476;-79
2022/08/12 14:49:02;;;;;;;;;8.00;8.00;;;;;29.96;28.15;101076.00;2375410;28;44591;-79
2022/08/12 14:50:15;;;;;;;;;7.75;6.50;;;;;29.97;27.34;101079.56;2375229;28;45258;-80
2022/08/12 14:51:26;;;;;;;;;7.25;7.25;;;;;29.99;27.38;101074.81;2374609;28;45416;-79
2022/08/12 14:52:42;;;;;;;;;8.00;8.00;;;;;29.99;28.12;101072.97;2375486;28;45732;-80
2022/08/12 14:53:52;;;;;;;;;7.25;7.25;;;;;30.02;28.70;101069.06;2376645;28;45288;-79
2022/08/12 14:55:03;;;;;;;;;8.25;8.25;;;;;30.05;28.72;101070.56;2384587;28;45594;-79
2022/08/12 14:56:14;;;;;;;;;7.00;7.00;;;;;30.06;27.36;101078.53;2384773;28;44607;-79
2022/08/12 14:57:24;;;;;;;;;10.00;7.00;;;;;30.10;28.61;101084.47;2384463;28;45751;-79
2022/08/12 14:58:35;;;;;;;;;8.50;6.50;;;;;30.08;29.07;101081.91;2381605;28;45257;-79
2022/08/12 15:02:45;;;;;;;;;6.50;6.50;;;;;30.09;28.78;101072.75;2375399;28;45809;-80
2022/08/12 15:03:55;;;;;;;;;7.50;7.50;;;;;30.07;26.18;101072.09;2376700;28;45160;-80
2022/08/12 15:05:06;;;;;;;;;8.50;8.00;;;;;30.10;28.39;101079.84;2384321;28;45334;-80